Time;durP1;ratioP1;P1;durP2;ratioP2;P2;SDS_P1;SDS_P2;PMS_P1;PMS_P2;Temp;Humidity;BMP_temperature;BMP_pressure;BME280_temperature;BME280_humidity;BME280_pressure;Samples;Min_cycle;Max_cycle;Signal;HPM_P1;HPM_P2
2022/05/11 00:01:11;;;;;;;13.43;11.13;;;14.50;99.90;;;;;;4954357;28;20261;-72
2022/05/11 00:03:36;;;;;;;15.00;10.67;;;14.50;99.90;;;;;;4954087;28;20661;-72
2022/05/11 00:06:02;;;;;;;13.60;11.60;;;14.50;99.90;;;;;;4954418;28;20464;-72
2022/05/11 00:08:27;;;;;;;12.00;10.90;;;14.50;99.90;;;;;;4954621;28;20280;-71
2022/05/11 00:10:53;;;;;;;12.30;10.67;;;14.40;99.90;;;;;;4953865;28;20184;-72
2022/05/11 00:13:18;;;;;;;12.27;11.07;;;14.40;99.90;;;;;;4953987;28;20215;-71
2022/05/11 00:15:44;;;;;;;11.87;10.77;;;14.30;99.90;;;;;;4953764;28;20251;-72
2022/05/11 00:18:10;;;;;;;13.87;12.40;;;14.30;99.90;;;;;;4953745;28;20183;-72
2022/05/11 00:20:37;;;;;;;12.83;11.40;;;14.30;99.90;;;;;;4953322;28;20176;-72
2022/05/11 00:23:03;;;;;;;11.67;10.67;;;14.20;99.90;;;;;;4953498;28;20428;-72
2022/05/11 00:25:29;;;;;;;15.73;10.13;;;14.20;99.90;;;;;;4953642;28;20588;-72
2022/05/11 00:27:56;;;;;;;11.07;10.07;;;14.20;99.90;;;;;;4953491;28;20251;-71
2022/05/11 00:30:22;;;;;;;12.83;10.60;;;14.10;99.90;;;;;;4952824;28;20180;-72
2022/05/11 00:32:51;;;;;;;12.20;10.77;;;14.10;99.90;;;;;;4953111;28;20460;-71
2022/05/11 00:35:16;;;;;;;19.70;11.10;;;14.10;99.90;;;;;;4953460;28;20416;-72
2022/05/11 00:37:42;;;;;;;13.23;10.23;;;14.00;99.90;;;;;;4953277;28;20426;-72
2022/05/11 00:40:08;;;;;;;11.47;10.47;;;14.00;99.90;;;;;;4953360;28;20176;-72
2022/05/11 00:42:33;;;;;;;11.40;10.30;;;14.00;99.90;;;;;;4953113;28;20196;-71
2022/05/11 00:44:59;;;;;;;11.77;10.57;;;14.00;99.90;;;;;;4953282;28;20522;-72
2022/05/11 00:47:37;;;;;;;12.23;11.03;;;13.90;99.90;;;;;;4953691;28;20273;-71
2022/05/11 00:50:15;;;;;;;12.60;11.30;;;13.90;99.90;;;;;;4953394;28;20334;-72
2022/05/11 00:52:47;;;;;;;12.30;11.10;;;13.80;99.90;;;;;;4956798;29;20804;-72
2022/05/11 00:55:21;;;;;;;11.93;10.73;;;13.80;99.90;;;;;;4958674;28;20416;-72
2022/05/11 00:58:06;;;;;;;12.57;11.27;;;13.80;99.90;;;;;;4956540;28;20417;-72
2022/05/11 02:31:09;;;;;;;11.70;10.47;;;13.00;99.90;;;;;;5875487;23;21779;-71
2022/05/11 02:33:35;;;;;;;15.43;10.80;;;13.00;99.90;;;;;;4944951;28;20436;-71
2022/05/11 02:36:01;;;;;;;11.47;10.37;;;13.00;99.90;;;;;;4955114;28;20176;-71
2022/05/11 02:38:30;;;;;;;11.40;10.20;;;13.00;99.90;;;;;;4939757;28;20505;-71
2022/05/11 02:40:56;;;;;;;12.10;10.23;;;12.90;99.90;;;;;;4935605;29;20217;-70
2022/05/11 02:43:21;;;;;;;11.47;10.37;;;12.90;99.90;;;;;;4936259;29;20414;-71
2022/05/11 02:45:49;;;;;;;11.03;9.87;;;12.90;99.90;;;;;;4935993;29;20977;-71
2022/05/11 02:48:18;;;;;;;10.70;9.70;;;12.90;99.90;;;;;;4936176;29;20174;-71
2022/05/11 02:50:52;;;;;;;13.63;10.93;;;12.90;99.90;;;;;;4935758;29;20418;-71
2022/05/11 02:53:19;;;;;;;14.00;10.07;;;12.90;99.90;;;;;;4935724;29;20414;-71
2022/05/11 02:55:48;;;;;;;12.40;9.77;;;12.90;99.90;;;;;;4935672;29;20793;-70
2022/05/11 02:58:16;;;;;;;10.67;9.60;;;12.90;99.90;;;;;;4936277;29;20877;-71
2022/05/11 03:00:44;;;;;;;11.50;10.40;;;12.90;99.90;;;;;;4935674;29;20422;-71
2022/05/11 03:03:11;;;;;;;12.10;9.90;;;12.90;99.90;;;;;;4935899;29;20433;-71
2022/05/11 03:05:38;;;;;;;10.50;9.50;;;12.90;99.90;;;;;;4935597;29;20472;-71
2022/05/11 03:08:04;;;;;;;11.40;8.60;;;12.90;99.90;;;;;;4935796;29;20513;-71
2022/05/11 03:10:30;;;;;;;10.20;9.20;;;12.90;99.90;;;;;;4935693;29;20449;-72
2022/05/11 03:12:55;;;;;;;10.40;9.30;;;12.90;99.90;;;;;;4934190;29;20445;-71
2022/05/11 03:15:21;;;;;;;9.80;8.80;;;13.00;99.90;;;;;;4935753;29;20170;-70
2022/05/11 03:17:47;;;;;;;9.97;9.07;;;13.00;99.90;;;;;;4935554;29;20268;-71
2022/05/11 03:20:13;;;;;;;9.77;8.87;;;13.00;99.90;;;;;;4935463;29;20184;-71
2022/05/11 03:22:38;;;;;;;9.47;8.50;;;13.00;99.90;;;;;;4935302;29;20953;-73
2022/05/11 03:25:05;;;;;;;9.73;8.90;;;13.00;99.90;;;;;;4935344;29;20259;-71
2022/05/11 03:27:31;;;;;;;10.80;9.60;;;13.00;99.90;;;;;;4935266;29;20590;-71
2022/05/11 03:29:57;;;;;;;10.07;9.10;;;13.10;99.90;;;;;;4935231;29;20480;-71
2022/05/11 03:35:11;;;;;;;9.93;8.93;;;13.00;99.90;;;;;;4935773;29;20268;-71
2022/05/11 03:37:37;;;;;;;9.50;8.60;;;13.00;99.90;;;;;;4935282;29;20762;-71
2022/05/11 03:40:08;;;;;;;9.70;8.70;;;13.00;99.90;;;;;;4934957;29;20425;-71
2022/05/11 03:42:35;;;;;;;10.37;9.37;;;13.00;99.90;;;;;;4934889;29;20473;-72
2022/05/11 03:45:17;;;;;;;9.70;8.70;;;13.00;99.90;;;;;;4934956;29;20454;-71
2022/05/11 03:47:45;;;;;;;9.17;8.23;;;13.00;99.90;;;;;;4935136;29;20418;-71
2022/05/11 03:50:10;;;;;;;9.67;8.67;;;13.00;99.90;;;;;;4934878;29;20499;-71
2022/05/11 03:52:36;;;;;;;12.33;9.67;;;13.00;99.90;;;;;;4934774;29;20520;-71
2022/05/11 03:55:04;;;;;;;8.90;8.10;;;13.00;99.90;;;;;;4934792;29;20256;-71
2022/05/11 03:57:29;;;;;;;9.83;8.80;;;13.00;99.90;;;;;;4934776;29;20475;-71
2022/05/11 03:59:55;;;;;;;10.83;8.77;;;13.10;99.90;;;;;;4934716;29;20413;-72
2022/05/11 04:02:20;;;;;;;9.80;8.70;;;13.10;99.90;;;;;;4934758;29;20197;-71
2022/05/11 04:04:46;;;;;;;9.27;8.27;;;13.10;99.90;;;;;;4933273;29;20796;-69
2022/05/11 04:07:12;;;;;;;9.00;8.00;;;13.20;99.90;;;;;;4934667;29;20203;-70
2022/05/11 04:09:38;;;;;;;9.17;8.27;;;13.20;99.90;;;;;;4934593;29;20256;-69
2022/05/11 04:12:05;;;;;;;12.67;11.20;;;13.30;99.90;;;;;;4934292;29;20449;-70
2022/05/11 04:14:31;;;;;;;18.13;15.63;;;13.30;99.90;;;;;;4934796;29;20414;-69
2022/05/11 04:16:59;;;;;;;9.40;8.40;;;13.40;99.90;;;;;;4934420;29;20417;-70
2022/05/11 04:19:28;;;;;;;9.53;8.73;;;13.50;99.90;;;;;;4934473;29;20166;-70
2022/05/11 04:21:55;;;;;;;9.80;7.47;;;13.60;99.90;;;;;;4933226;29;20433;-70
2022/05/11 04:24:20;;;;;;;7.97;7.27;;;13.70;99.90;;;;;;4934506;29;20425;-69
2022/05/11 04:26:46;;;;;;;8.30;7.60;;;13.90;99.90;;;;;;4933063;29;20467;-70
2022/05/11 04:29:11;;;;;;;8.50;7.70;;;14.00;99.90;;;;;;4934451;29;20236;-70
2022/05/11 04:31:37;;;;;;;13.40;10.87;;;14.20;99.90;;;;;;4934079;29;20213;-70
2022/05/11 04:34:03;;;;;;;8.40;7.60;;;14.30;99.90;;;;;;4934206;29;20213;-70
2022/05/11 04:36:30;;;;;;;7.83;7.13;;;14.50;99.90;;;;;;4934200;29;20177;-70
2022/05/11 04:38:56;;;;;;;8.20;7.20;;;14.60;99.90;;;;;;4934116;29;20228;-71
2022/05/11 04:41:21;;;;;;;7.70;6.50;;;14.80;99.90;;;;;;4933902;29;20452;-71
2022/05/11 04:43:48;;;;;;;9.73;6.70;;;15.00;99.90;;;;;;4934110;29;20417;-69
2022/05/11 04:46:13;;;;;;;8.10;7.30;;;15.10;99.90;;;;;;4933904;29;20215;-69
2022/05/11 04:48:39;;;;;;;8.57;7.53;;;15.20;99.90;;;;;;4934435;29;20414;-69
2022/05/11 04:51:05;;;;;;;8.93;5.87;;;15.30;99.90;;;;;;4933485;29;20205;-70
2022/05/11 04:53:31;;;;;;;7.30;6.60;;;15.40;99.90;;;;;;4934135;29;20205;-70
2022/05/11 04:55:57;;;;;;;7.40;6.50;;;15.60;99.90;;;;;;4933879;29;20203;-72
2022/05/11 04:58:24;;;;;;;21.10;16.47;;;15.70;99.90;;;;;;4934253;29;20488;-70
2022/05/11 05:00:49;;;;;;;8.20;7.50;;;15.80;99.90;;;;;;4933686;29;20491;-70
2022/05/11 05:03:15;;;;;;;6.83;6.17;;;16.00;99.90;;;;;;4934129;29;20504;-70
2022/05/11 05:05:43;;;;;;;9.23;6.60;;;16.10;99.90;;;;;;4933872;29;20220;-70
2022/05/11 05:08:09;;;;;;;6.47;5.87;;;16.20;99.90;;;;;;4933878;29;20433;-70
2022/05/11 05:10:35;;;;;;;8.30;4.70;;;16.30;99.90;;;;;;4933601;29;20418;-68
2022/05/11 05:13:03;;;;;;;6.73;6.10;;;16.70;99.90;;;;;;4933642;29;20417;-69
2022/05/11 05:15:29;;;;;;;5.57;4.90;;;17.20;99.90;;;;;;4933843;29;20449;-70
2022/05/11 05:17:55;;;;;;;4.50;4.20;;;18.70;99.90;;;;;;4937084;29;20921;-70
2022/05/11 05:20:22;;;;;;;5.83;4.63;;;20.80;99.90;;;;;;4937682;29;20428;-72
2022/05/11 05:22:47;;;;;;;6.27;4.03;;;22.30;99.90;;;;;;4911560;29;20217;-73
2022/05/11 05:25:13;;;;;;;4.50;4.20;;;23.40;99.90;;;;;;4916383;29;20469;-72
2022/05/11 05:27:38;;;;;;;5.00;4.70;;;24.40;99.90;;;;;;4919636;29;20257;-72
2022/05/11 05:32:49;;;;;;;4.07;3.77;;;26.40;99.90;;;;;;4919093;29;20220;-72
2022/05/11 05:35:17;;;;;;;3.80;3.50;;;27.40;99.90;;;;;;4920723;29;20521;-72
2022/05/11 05:37:44;;;;;;;3.90;3.70;;;28.30;99.90;;;;;;4918642;29;20193;-72
2022/05/11 05:40:10;;;;;;;3.40;3.20;;;28.70;99.90;;;;;;4918356;29;20453;-71
2022/05/11 05:42:36;;;;;;;3.70;3.40;;;28.80;99.90;;;;;;4918367;29;20485;-72
2022/05/11 05:45:02;;;;;;;5.50;3.50;;;28.90;99.90;;;;;;4917990;29;20465;-71
2022/05/11 05:47:27;;;;;;;5.20;4.00;;;28.80;99.90;;;;;;4933071;29;20927;-71
2022/05/11 05:49:53;;;;;;;4.33;3.93;;;29.30;99.90;;;;;;4918129;29;20422;-72
2022/05/11 05:52:22;;;;;;;3.73;3.63;;;29.30;99.90;;;;;;4917989;29;20206;-72
2022/05/11 05:54:48;;;;;;;3.87;3.43;;;29.10;99.90;;;;;;4918192;29;20618;-72
2022/05/11 05:57:14;;;;;;;3.93;3.60;;;28.50;99.90;;;;;;4917785;29;20800;-71
2022/05/11 05:59:41;;;;;;;7.80;4.13;;;28.20;99.90;;;;;;4917791;29;20482;-71
2022/05/11 06:02:12;;;;;;;4.77;3.60;;;27.90;99.90;;;;;;4917499;29;20437;-71
2022/05/11 06:04:43;;;;;;;4.83;4.40;;;27.50;99.90;;;;;;4917679;29;20765;-72
2022/05/11 06:07:11;;;;;;;4.70;3.60;;;27.30;99.90;;;;;;4917847;29;20513;-71
2022/05/11 06:09:36;;;;;;;3.77;3.47;;;26.70;99.90;;;;;;4917796;29;20421;-71
2022/05/11 06:12:02;;;;;;;4.03;3.70;;;26.70;99.90;;;;;;4917492;29;20437;-71
2022/05/11 06:14:27;;;;;;;5.10;4.27;;;26.40;99.90;;;;;;4917817;29;20186;-71
2022/05/11 06:16:53;;;;;;;4.33;3.93;;;26.40;99.90;;;;;;4917721;29;20706;-73
2022/05/11 06:19:19;;;;;;;3.67;3.47;;;26.20;99.90;;;;;;4917868;29;20182;-71
2022/05/11 06:21:47;;;;;;;4.03;3.83;;;26.00;99.90;;;;;;4917364;29;20717;-71
2022/05/11 06:24:12;;;;;;;4.47;4.17;;;26.10;99.90;;;;;;4917427;29;20264;-72
2022/05/11 06:26:38;;;;;;;7.53;3.83;;;26.10;99.90;;;;;;4916988;29;20557;-71
2022/05/11 06:29:05;;;;;;;4.67;4.37;;;26.00;99.90;;;;;;4916602;29;20316;-72
2022/05/11 06:31:31;;;;;;;4.97;4.17;;;26.00;99.90;;;;;;4916633;29;20482;-71
2022/05/11 06:33:57;;;;;;;4.03;3.73;;;25.90;99.90;;;;;;4916815;29;20438;-71
2022/05/11 06:36:23;;;;;;;6.90;4.37;;;25.90;99.90;;;;;;4917397;29;20780;-72
2022/05/11 06:38:50;;;;;;;4.70;4.30;;;25.90;99.90;;;;;;4917198;29;20334;-71
2022/05/11 06:41:18;;;;;;;7.73;4.40;;;25.80;99.90;;;;;;4916174;29;20438;-74
2022/05/11 06:43:44;;;;;;;4.07;3.77;;;25.60;99.90;;;;;;4917286;29;20898;-72
2022/05/11 06:46:10;;;;;;;3.63;3.43;;;25.70;99.90;;;;;;4917082;29;20466;-72
2022/05/11 06:48:35;;;;;;;6.43;4.40;;;25.80;99.90;;;;;;4917183;29;20182;-72
2022/05/11 06:51:01;;;;;;;4.20;3.80;;;25.80;99.90;;;;;;4916697;29;20213;-71
2022/05/11 06:53:27;;;;;;;5.40;4.23;;;26.00;99.90;;;;;;4917171;29;20785;-73
2022/05/11 07:01:21;;;;;;;5.60;4.20;;;26.30;99.90;;;;;;4916665;29;20448;-71
2022/05/11 07:03:46;;;;;;;4.40;3.93;;;26.30;99.90;;;;;;4916876;29;20800;-72
2022/05/11 07:06:12;;;;;;;4.00;3.80;;;26.40;99.90;;;;;;4916741;29;20224;-72
2022/05/11 07:08:42;;;;;;;4.07;3.77;;;26.20;99.90;;;;;;4916736;29;20657;-71
2022/05/11 07:13:53;;;;;;;4.33;4.03;;;26.40;99.90;;;;;;4916407;29;20528;-72
2022/05/11 07:16:19;;;;;;;4.27;3.87;;;26.60;99.90;;;;;;4916924;29;20430;-71
2022/05/11 07:18:45;;;;;;;4.00;3.60;;;26.60;99.90;;;;;;4916539;29;20186;-72
2022/05/11 07:21:10;;;;;;;8.37;3.80;;;26.70;99.90;;;;;;4916002;29;20444;-71
2022/05/11 07:23:36;;;;;;;4.33;3.50;;;26.90;99.90;;;;;;4916342;29;20237;-71
2022/05/11 07:26:02;;;;;;;3.70;3.50;;;27.10;99.90;;;;;;4914919;29;20302;-71
2022/05/11 07:28:28;;;;;;;4.67;3.57;;;27.60;99.90;;;;;;4916510;29;20615;-71
2022/05/11 07:30:53;;;;;;;3.50;3.30;;;27.90;99.90;;;;;;4915732;29;20485;-71
2022/05/11 07:33:19;;;;;;;4.10;3.30;;;27.80;99.90;;;;;;4916307;29;20608;-71
2022/05/11 07:35:45;;;;;;;4.30;3.50;;;27.70;99.90;;;;;;4914818;29;20559;-70
2022/05/11 07:38:13;;;;;;;4.43;4.03;;;27.90;99.90;;;;;;4914396;29;20422;-71
2022/05/11 07:40:40;;;;;;;3.63;3.43;;;28.00;99.90;;;;;;4915950;29;20210;-71
2022/05/11 07:43:06;;;;;;;3.20;3.00;;;28.00;99.90;;;;;;4916306;29;20434;-73
2022/05/11 07:45:32;;;;;;;3.47;3.20;;;28.30;99.90;;;;;;4915817;29;20460;-72
2022/05/11 07:47:58;;;;;;;2.73;2.63;;;28.50;99.90;;;;;;4916033;29;20422;-71
2022/05/11 07:50:23;;;;;;;3.73;3.20;;;28.50;99.90;;;;;;4915990;29;20181;-68
2022/05/11 07:52:49;;;;;;;3.10;3.00;;;28.50;99.90;;;;;;4916086;29;20206;-71
2022/05/11 07:55:16;;;;;;;4.03;2.77;;;28.40;99.90;;;;;;4916230;29;20190;-71
2022/05/11 08:00:26;;;;;;;3.23;2.87;;;28.50;99.90;;;;;;4916082;29;20488;-71
2022/05/11 08:02:52;;;;;;;7.83;2.73;;;28.80;99.90;;;;;;4915759;29;20438;-71
2022/05/11 08:05:19;;;;;;;6.53;3.60;;;28.60;99.90;;;;;;4915715;29;20714;-71
2022/05/11 08:07:46;;;;;;;5.13;3.83;;;28.40;99.90;;;;;;4916206;29;20178;-71
2022/05/11 08:10:34;;;;;;;5.80;3.57;;;28.80;99.90;;;;;;4915640;29;20437;-72
2022/05/11 08:13:04;;;;;;;3.80;3.50;;;29.10;99.90;;;;;;4915787;29;20433;-71
2022/05/11 08:15:32;;;;;;;7.07;3.10;;;29.10;99.90;;;;;;4915894;29;20422;-71
2022/05/11 08:17:58;;;;;;;3.80;3.60;;;29.40;99.90;;;;;;4915961;29;20426;-72
2022/05/11 08:20:30;;;;;;;4.07;3.03;;;29.80;99.90;;;;;;4917682;29;20515;-69
2022/05/11 08:22:57;;;;;;;9.80;3.10;;;30.10;99.90;;;;;;4916155;29;20440;-71
2022/05/11 08:25:26;;;;;;;4.20;3.57;;;30.40;99.90;;;;;;4915843;29;20501;-71
2022/05/11 08:27:53;;;;;;;3.87;3.50;;;30.50;99.90;;;;;;4916128;29;20810;-72
2022/05/11 08:33:27;;;;;;;3.70;3.00;;;31.00;99.90;;;;;;4915417;29;20440;-71
2022/05/11 08:35:55;;;;;;;3.47;3.17;;;31.30;99.90;;;;;;4915378;29;20776;-71
2022/05/11 08:38:22;;;;;;;5.30;4.13;;;31.00;99.50;;;;;;4915453;29;20807;-71
2022/05/11 08:40:58;;;;;;;4.37;4.07;;;31.60;99.90;;;;;;4915110;29;20433;-71
2022/05/11 08:43:28;;;;;;;5.93;3.63;;;31.70;99.60;;;;;;4915561;29;20469;-71
2022/05/11 08:46:02;;;;;;;6.73;4.27;;;31.90;98.70;;;;;;4914880;29;20488;-72
2022/05/11 08:48:33;;;;;;;3.80;3.50;;;31.90;97.20;;;;;;4915323;29;20426;-72
2022/05/11 08:51:00;;;;;;;3.90;3.50;;;32.10;97.80;;;;;;4916246;29;20939;-71
2022/05/11 08:53:38;;;;;;;2.90;2.70;;;32.20;97.40;;;;;;4921706;29;20429;-71
2022/05/11 08:56:17;;;;;;;2.93;2.83;;;32.20;96.30;;;;;;4921361;29;20497;-72
2022/05/11 08:58:48;;;;;;;3.67;2.97;;;32.40;97.00;;;;;;4921552;29;20891;-72
2022/05/11 09:01:30;;;;;;;3.27;2.97;;;32.60;96.40;;;;;;4921409;29;20457;-72
2022/05/11 09:03:58;;;;;;;4.03;3.13;;;33.00;95.10;;;;;;4921286;29;20417;-72
2022/05/11 09:06:27;;;;;;;3.70;3.40;;;33.30;94.70;;;;;;4921787;29;20986;-72
2022/05/11 09:08:58;;;;;;;4.13;3.37;;;33.20;95.30;;;;;;4921500;29;20794;-73
2022/05/11 09:11:34;;;;;;;5.53;3.50;;;33.10;95.20;;;;;;4921168;29;20532;-71
2022/05/11 09:14:01;;;;;;;4.50;3.00;;;33.10;95.30;;;;;;4921428;29;20425;-72
2022/05/11 09:16:36;;;;;;;7.70;3.77;;;32.60;93.90;;;;;;4921289;29;20513;-71
2022/05/11 09:19:17;;;;;;;4.40;4.00;;;32.60;94.40;;;;;;4921312;29;20421;-72
2022/05/11 09:21:51;;;;;;;4.43;3.97;;;32.60;93.40;;;;;;4921194;29;20442;-72
2022/05/11 09:24:21;;;;;;;3.77;3.57;;;32.60;94.60;;;;;;4921358;29;20418;-73
2022/05/11 09:27:01;;;;;;;4.20;3.73;;;32.50;94.00;;;;;;4921187;29;20461;-71
2022/05/11 09:29:43;;;;;;;4.23;3.90;;;32.50;94.20;;;;;;4921004;29;20426;-71
2022/05/11 09:32:33;;;;;;;4.50;4.10;;;32.80;94.40;;;;;;4920834;29;20457;-72
2022/05/11 09:35:25;;;;;;;4.03;3.63;;;32.90;93.90;;;;;;4921093;29;20785;-71
2022/05/11 09:38:16;;;;;;;3.73;3.53;;;32.90;93.20;;;;;;4920152;29;20516;-71
2022/05/11 09:41:10;;;;;;;3.40;3.20;;;32.10;93.70;;;;;;4933807;29;20418;-72
2022/05/11 09:43:46;;;;;;;3.80;3.60;;;32.30;94.80;;;;;;4921451;29;20402;-72
2022/05/11 09:46:20;;;;;;;3.50;3.20;;;32.50;94.60;;;;;;4920985;29;21049;-72
2022/05/11 09:49:13;;;;;;;4.40;4.00;;;33.10;93.90;;;;;;4921371;29;20425;-69
2022/05/11 09:51:38;;;;;;;5.10;4.70;;;32.70;93.50;;;;;;4920743;29;20434;-72
2022/05/11 09:54:38;;;;;;;6.30;4.27;;;31.80;93.80;;;;;;4921261;29;20418;-71
2022/05/11 09:57:23;;;;;;;4.63;4.33;;;31.50;94.20;;;;;;4920937;29;20194;-71
2022/05/11 09:59:51;;;;;;;9.23;4.10;;;32.20;95.40;;;;;;4921006;29;20425;-73
2022/05/11 10:02:30;;;;;;;4.17;3.87;;;32.50;94.50;;;;;;4919739;29;20938;-71
2022/05/11 10:05:02;;;;;;;4.80;4.40;;;32.50;94.40;;;;;;4917573;29;20504;-72
2022/05/11 10:07:32;;;;;;;4.20;3.90;;;32.80;93.20;;;;;;4917954;29;20433;-72
2022/05/11 10:10:09;;;;;;;4.17;3.97;;;32.30;93.80;;;;;;4917766;29;20407;-72
2022/05/11 10:12:39;;;;;;;4.40;4.10;;;32.50;93.40;;;;;;4917823;29;20830;-72
2022/05/11 10:24:12;;;;;;;4.60;4.30;;;32.20;94.00;;;;;;4917447;29;20429;-72
2022/05/11 10:26:52;;;;;;;4.60;4.30;;;32.00;94.10;;;;;;4917673;29;20489;-72
2022/05/11 10:29:22;;;;;;;4.20;3.90;;;31.70;94.00;;;;;;4917539;29;20418;-72
2022/05/11 10:32:00;;;;;;;4.40;4.10;;;31.90;93.50;;;;;;4917247;29;20493;-72
2022/05/11 10:34:47;;;;;;;5.23;3.63;;;32.10;93.90;;;;;;4917609;29;20446;-72
2022/05/11 10:37:27;;;;;;;5.20;4.30;;;31.90;93.50;;;;;;4917490;29;20505;-71
2022/05/11 10:40:09;;;;;;;4.40;4.10;;;31.70;94.10;;;;;;4917205;29;20987;-71
2022/05/11 10:42:39;;;;;;;4.10;3.70;;;31.70;93.00;;;;;;4917355;29;20434;-71
2022/05/11 10:45:40;;;;;;;3.63;3.33;;;31.20;92.80;;;;;;4917211;29;20457;-71
2022/05/11 10:48:36;;;;;;;4.53;4.33;;;31.10;94.00;;;;;;4917589;29;21030;-71
2022/05/11 10:51:25;;;;;;;6.73;3.67;;;31.00;92.80;;;;;;4916754;29;20438;-72
2022/05/11 10:54:06;;;;;;;4.53;3.97;;;31.00;91.70;;;;;;4917276;29;20497;-72
2022/05/11 10:57:00;;;;;;;4.00;3.57;;;30.80;92.10;;;;;;4917192;29;20795;-71
2022/05/11 10:59:48;;;;;;;4.73;3.70;;;31.00;92.80;;;;;;4917088;29;20513;-71
2022/05/11 11:02:51;;;;;;;3.87;3.63;;;31.10;91.60;;;;;;4917188;29;20491;-71
2022/05/11 11:07:11;;;;;;;5.80;3.87;;;30.90;92.40;;;;;;4918005;29;20488;-72
2022/05/11 11:08:50;;;;;;;4.63;3.53;;;31.20;93.10;;;;;;4916410;29;20423;-72
2022/05/11 11:11:40;;;;;;;6.60;4.17;;;31.50;91.00;;;;;;4916475;29;20436;-72
2022/05/11 11:14:09;;;;;;;9.67;4.27;;;31.40;91.20;;;;;;4916402;29;20410;-71
2022/05/11 11:16:37;;;;;;;3.40;3.10;;;31.20;90.70;;;;;;4916734;29;20464;-71
2022/05/11 11:19:08;;;;;;;4.63;3.97;;;31.30;91.30;;;;;;4916478;29;20781;-72
2022/05/11 11:21:38;;;;;;;4.70;3.23;;;31.30;91.40;;;;;;4916095;29;20441;-71
2022/05/11 11:24:22;;;;;;;8.40;3.47;;;30.80;90.90;;;;;;4916323;29;20410;-72
2022/05/11 11:27:03;;;;;;;2.90;2.70;;;30.20;90.70;;;;;;4916258;29;20923;-72
2022/05/11 11:29:34;;;;;;;9.87;3.50;;;30.20;92.10;;;;;;4916456;29;20426;-72
2022/05/11 11:32:04;;;;;;;3.77;3.27;;;30.70;92.00;;;;;;4915774;29;20489;-73
2022/05/11 11:34:32;;;;;;;4.10;3.83;;;31.20;92.90;;;;;;4916269;29;20438;-73
2022/05/11 11:36:59;;;;;;;3.87;3.67;;;31.50;89.80;;;;;;4916074;29;20789;-73
2022/05/11 11:39:54;;;;;;;4.20;3.90;;;31.80;91.80;;;;;;4916206;29;20457;-72
2022/05/11 11:42:35;;;;;;;3.20;3.00;;;31.50;87.80;;;;;;4916059;29;20533;-72
2022/05/11 11:45:03;;;;;;;12.07;3.27;;;30.90;90.00;;;;;;4916232;29;20418;-72
2022/05/11 11:47:30;;;;;;;2.70;2.60;;;30.60;90.00;;;;;;4914879;29;20440;-71
2022/05/11 11:49:58;;;;;;;4.23;3.07;;;30.60;88.70;;;;;;4915989;29;20433;-70
2022/05/11 11:52:39;;;;;;;7.23;3.43;;;30.70;90.80;;;;;;4911962;29;20494;-71
2022/05/11 11:55:14;;;;;;;3.40;3.20;;;30.70;89.70;;;;;;4896793;29;20427;-73
2022/05/11 11:57:39;;;;;;;5.40;3.60;;;30.70;91.10;;;;;;4897270;29;20561;-72
2022/05/11 12:00:50;;;;;;;3.10;2.90;;;30.60;90.00;;;;;;4896882;29;20968;-70
2022/05/11 12:03:23;;;;;;;3.20;2.80;;;30.10;87.40;;;;;;4895847;29;20230;-70
2022/05/11 12:05:53;;;;;;;3.40;3.20;;;30.00;90.20;;;;;;4896735;29;20831;-70
2022/05/11 12:16:59;;;;;;;3.00;2.90;;;29.90;90.40;;;;;;4895701;29;20445;-69
2022/05/11 12:19:30;;;;;;;3.37;3.00;;;29.60;90.70;;;;;;4896528;29;20429;-70
2022/05/11 12:22:12;;;;;;;3.30;3.10;;;29.80;90.90;;;;;;4896241;29;20434;-70
2022/05/11 12:24:56;;;;;;;3.10;2.70;;;30.00;91.50;;;;;;4896632;29;20419;-69
2022/05/11 12:27:26;;;;;;;3.20;2.93;;;30.20;89.80;;;;;;4895845;29;20862;-69
2022/05/11 12:29:59;;;;;;;7.57;3.07;;;30.20;89.30;;;;;;4896102;29;20423;-70
2022/05/11 12:32:29;;;;;;;4.27;3.87;;;30.30;89.10;;;;;;4895788;29;20454;-69
2022/05/11 12:34:55;;;;;;;2.80;2.60;;;30.20;90.20;;;;;;4896097;29;20455;-69
2022/05/11 12:37:30;;;;;;;6.20;3.27;;;30.30;90.20;;;;;;4896487;29;20419;-69
2022/05/11 12:40:01;;;;;;;4.03;2.90;;;30.40;89.20;;;;;;4896212;29;20453;-70
2022/05/11 12:42:36;;;;;;;3.30;3.03;;;30.40;87.40;;;;;;4896178;29;20423;-70
2022/05/11 12:45:03;;;;;;;8.40;3.17;;;30.30;87.50;;;;;;4896130;29;20418;-70
2022/05/11 12:47:29;;;;;;;9.53;2.93;;;30.40;88.50;;;;;;4901925;29;20437;-69
2022/05/11 12:49:55;;;;;;;3.93;3.63;;;30.30;86.50;;;;;;4914627;29;20430;-69
2022/05/11 12:52:24;;;;;;;3.20;3.00;;;30.30;87.90;;;;;;4914812;29;20194;-70
2022/05/11 12:55:01;;;;;;;3.10;2.90;;;30.30;88.50;;;;;;4913613;29;20273;-70
2022/05/11 12:57:36;;;;;;;3.33;3.03;;;30.30;84.80;;;;;;4915094;29;20417;-70
2022/05/11 13:00:11;;;;;;;4.27;2.60;;;30.20;85.50;;;;;;4914716;29;20934;-70
2022/05/11 13:02:39;;;;;;;3.40;3.10;;;30.10;86.30;;;;;;4914951;29;20441;-70
2022/05/11 13:05:08;;;;;;;6.33;3.40;;;30.00;84.20;;;;;;4914813;29;20425;-70
2022/05/11 13:07:54;;;;;;;2.83;2.57;;;29.90;85.00;;;;;;4914876;29;20419;-70
2022/05/11 13:10:35;;;;;;;3.23;3.03;;;29.90;86.50;;;;;;4914949;29;20836;-70
2022/05/11 13:13:04;;;;;;;6.63;3.30;;;29.70;84.30;;;;;;4914911;29;20449;-70
2022/05/11 13:15:45;;;;;;;3.50;2.80;;;29.70;85.30;;;;;;4915362;29;20446;-71
2022/05/11 13:18:43;;;;;;;2.70;2.60;;;29.60;81.90;;;;;;4914872;29;20494;-70
2022/05/11 13:21:10;;;;;;;5.93;2.83;;;29.60;86.60;;;;;;4912937;29;21294;-69
2022/05/11 13:23:50;;;;;;;2.80;2.70;;;29.60;82.30;;;;;;4914973;29;20458;-70
2022/05/11 13:26:34;;;;;;;3.50;2.63;;;29.40;81.70;;;;;;4914643;29;20466;-70
2022/05/11 13:29:19;;;;;;;7.53;3.23;;;29.40;82.50;;;;;;4913622;29;20421;-69
2022/05/11 13:31:59;;;;;;;10.13;3.23;;;29.40;81.90;;;;;;4902898;29;20892;-71
2022/05/11 13:34:39;;;;;;;2.50;2.37;;;29.30;82.90;;;;;;4895937;29;20415;-70
2022/05/11 13:37:05;;;;;;;4.07;3.23;;;29.40;85.60;;;;;;4900045;29;20434;-70
2022/05/11 13:39:39;;;;;;;3.10;2.90;;;29.40;86.40;;;;;;4899201;29;20427;-71
2022/05/11 13:42:19;;;;;;;7.40;2.60;;;29.60;87.00;;;;;;4908118;29;20450;-71
2022/05/11 13:44:52;;;;;;;3.47;2.60;;;29.60;83.60;;;;;;4911385;29;20433;-70
2022/05/11 13:50:29;;;;;;;2.47;2.33;;;29.30;77.70;;;;;;4918317;29;20401;-70
2022/05/11 13:53:04;;;;;;;6.33;2.93;;;29.20;79.90;;;;;;4914787;29;20434;-70
2022/05/11 13:55:36;;;;;;;3.23;2.70;;;29.30;81.40;;;;;;4907316;29;20461;-71
2022/05/11 13:58:23;;;;;;;9.93;4.43;;;29.20;81.00;;;;;;4907500;29;20469;-72
2022/05/11 14:00:52;;;;;;;10.23;2.70;;;29.30;82.10;;;;;;4902405;29;20414;-70
2022/05/11 14:03:20;;;;;;;2.67;2.50;;;29.30;82.70;;;;;;4898012;29;20793;-70
2022/05/11 14:05:45;;;;;;;5.27;3.03;;;29.40;83.60;;;;;;4899074;29;20481;-74
2022/05/11 14:08:12;;;;;;;3.20;2.90;;;29.20;82.80;;;;;;4897791;29;20438;-72
2022/05/11 14:10:38;;;;;;;3.10;2.90;;;29.30;84.20;;;;;;4898621;29;20244;-71
2022/05/11 14:13:04;;;;;;;4.17;2.53;;;29.50;84.60;;;;;;4898685;29;20422;-71
2022/05/11 14:15:30;;;;;;;3.40;2.43;;;29.60;83.80;;;;;;4901784;29;20441;-72
2022/05/11 14:17:55;;;;;;;2.37;2.17;;;29.60;79.40;;;;;;4909552;29;20196;-69
2022/05/11 14:20:24;;;;;;;3.17;2.60;;;29.40;78.40;;;;;;4899719;29;20183;-71
2022/05/11 14:22:50;;;;;;;2.17;2.07;;;29.30;81.20;;;;;;4902563;29;20241;-71
2022/05/11 14:25:16;;;;;;;2.63;2.50;;;29.30;79.20;;;;;;4913280;29;20585;-72
2022/05/11 14:27:43;;;;;;;6.50;2.70;;;29.30;81.40;;;;;;4909271;29;20209;-72
2022/05/11 14:30:10;;;;;;;2.80;2.60;;;29.30;79.70;;;;;;4915483;29;20497;-71
2022/05/11 14:32:45;;;;;;;2.83;2.63;;;29.40;80.80;;;;;;4910419;29;20459;-71
2022/05/11 14:35:19;;;;;;;2.93;2.73;;;29.50;79.80;;;;;;4909705;28;20564;-71
2022/05/11 14:37:46;;;;;;;4.10;2.50;;;29.30;78.00;;;;;;4916562;29;20473;-71
2022/05/11 14:40:13;;;;;;;4.07;2.00;;;29.30;78.30;;;;;;4915792;29;20461;-71
2022/05/11 14:42:39;;;;;;;2.57;2.40;;;29.30;76.40;;;;;;4909366;29;20797;-72
2022/05/11 14:45:06;;;;;;;2.90;2.60;;;29.10;77.00;;;;;;4897038;29;20517;-72
2022/05/11 14:47:32;;;;;;;2.23;2.13;;;29.20;79.10;;;;;;4897494;29;20202;-72
2022/05/11 14:50:00;;;;;;;3.27;2.97;;;29.30;78.90;;;;;;4896475;29;20467;-72
2022/05/11 14:52:26;;;;;;;4.03;2.57;;;29.20;78.90;;;;;;4897109;29;20539;-72
2022/05/11 14:54:51;;;;;;;2.70;2.60;;;29.20;78.70;;;;;;4896865;29;20489;-71
2022/05/11 15:02:54;;;;;;;5.07;2.57;;;28.90;81.20;;;;;;4920612;29;20464;-72
2022/05/11 15:05:20;;;;;;;3.07;2.77;;;28.80;80.40;;;;;;4934695;28;20484;-72
2022/05/11 15:07:46;;;;;;;3.00;2.80;;;28.80;81.40;;;;;;4917566;29;20352;-72
2022/05/11 15:10:13;;;;;;;3.20;2.90;;;28.60;81.50;;;;;;4915306;29;20726;-73
2022/05/11 15:15:25;;;;;;;3.00;2.80;;;28.50;81.40;;;;;;4916558;29;21096;-72
2022/05/11 15:17:51;;;;;;;3.23;2.70;;;28.40;82.00;;;;;;4916849;29;20453;-72
2022/05/11 15:20:19;;;;;;;3.37;3.10;;;28.40;83.50;;;;;;4916406;29;20410;-72